College Hill, Texas
Current Conditions -  °F | °C
As of 4:35 PM on Wednesday 22 Oct 2014 (Local Time) from KOSA Reporting Station
Clear Clear  
Wind Chill: 78°   Ceiling: Unl
Heat Index: 79°   Visibility: 10mi
Dew Point: 50°   Wind: 6mph
Humidity: 37%   Direction: 110°ESE
Pressure: 30.11"   Gusts: NA
Location:  33.4703°N, 94.6281°W
Report Text: KOSA 222135Z AUTO 11005KT 10SM CLR 26/10 A3011 RMK AO1 T02550099
Loading
Personal Weather Stations






























Interactive Weather Map
Tropical Storm Tracking
New forecast layout! Learn more

10-Day Weather Forecast

Advertisements
Track Severe Weather on mobile